Time;durP1;ratioP1;P1;durP2;ratioP2;P2;SDS_P1;SDS_P2;PMS_P1;PMS_P2;Temp;Humidity;BMP_temperature;BMP_pressure;BME280_temperature;BME280_humidity;BME280_pressure;Samples;Min_cycle;Max_cycle;Signal;HPM_P1;HPM_P2
2023/06/10 00:00:36;;;;;;;3.75;2.90;;;13.90;99.90;;;;;;5074881;28;20204;-91
2023/06/10 00:03:07;;;;;;;4.72;2.50;;;14.00;99.90;;;;;;5074532;28;20207;-89
2023/06/10 00:05:39;;;;;;;7.00;2.92;;;14.00;99.90;;;;;;5074471;28;20566;-90
2023/06/10 00:08:11;;;;;;;6.30;2.67;;;14.20;99.90;;;;;;5074889;28;20716;-91
2023/06/10 00:10:45;;;;;;;10.50;3.38;;;14.30;99.90;;;;;;5074485;28;20291;-91
2023/06/10 00:13:16;;;;;;;4.07;2.83;;;14.40;99.90;;;;;;5075066;28;20199;-91
2023/06/10 00:15:47;;;;;;;6.82;2.88;;;14.40;99.90;;;;;;5074988;28;20204;-91
2023/06/10 00:18:21;;;;;;;5.35;2.95;;;14.40;99.90;;;;;;5074708;28;20230;-91
2023/06/10 00:20:54;;;;;;;5.95;3.13;;;14.60;99.90;;;;;;5074335;28;20215;-91
2023/06/10 00:23:26;;;;;;;3.65;2.65;;;14.70;99.90;;;;;;5074602;28;20199;-91
2023/06/10 00:26:02;;;;;;;3.45;2.08;;;14.80;99.90;;;;;;5074599;28;20227;-91
2023/06/10 00:28:33;;;;;;;6.93;2.72;;;14.90;99.90;;;;;;5073814;28;20236;-91
2023/06/10 00:31:05;;;;;;;6.15;2.50;;;15.00;99.90;;;;;;5073954;28;20196;-91
2023/06/10 00:33:36;;;;;;;6.95;2.63;;;15.00;99.90;;;;;;5073935;28;20220;-91
2023/06/10 00:36:08;;;;;;;5.03;2.40;;;15.10;99.90;;;;;;5074334;28;20203;-91
2023/06/10 00:38:40;;;;;;;5.90;1.88;;;15.30;99.90;;;;;;5073812;28;20223;-91
2023/06/10 00:41:14;;;;;;;4.32;1.60;;;15.40;99.90;;;;;;5073721;28;20282;-91
2023/06/10 00:43:47;;;;;;;3.00;1.73;;;15.60;99.90;;;;;;5074766;28;20206;-92
2023/06/10 00:46:19;;;;;;;8.45;2.25;;;15.70;99.90;;;;;;5074071;28;20215;-92
2023/06/10 00:48:54;;;;;;;3.25;1.70;;;15.80;99.90;;;;;;5074192;28;20196;-92
2023/06/10 00:51:27;;;;;;;3.20;1.65;;;15.80;99.90;;;;;;5074052;28;20226;-91
2023/06/10 00:54:00;;;;;;;6.22;1.88;;;15.90;99.90;;;;;;5073689;28;20192;-90
2023/06/10 00:56:35;;;;;;;5.88;1.85;;;15.90;99.90;;;;;;5074174;28;20260;-91
2023/06/10 00:59:06;;;;;;;4.38;1.83;;;16.00;99.90;;;;;;5073737;28;20234;-90
2023/06/10 01:01:39;;;;;;;5.22;1.98;;;16.10;99.90;;;;;;5073794;28;20220;-90
2023/06/10 01:04:12;;;;;;;4.90;1.73;;;16.10;99.90;;;;;;5073370;28;20567;-90
2023/06/10 01:06:52;;;;;;;6.10;2.13;;;16.00;99.90;;;;;;5073688;28;20192;-91
2023/06/10 01:09:36;;;;;;;6.72;1.90;;;16.10;99.90;;;;;;5072238;28;20196;-91
2023/06/10 01:12:20;;;;;;;3.28;1.77;;;16.10;99.90;;;;;;5076036;28;20207;-91
2023/06/10 01:14:52;;;;;;;4.90;1.60;;;16.00;99.90;;;;;;5078256;28;20200;-92
2023/06/10 01:17:27;;;;;;;3.90;1.80;;;16.10;99.90;;;;;;5072455;28;20202;-92
2023/06/10 01:20:02;;;;;;;4.53;1.75;;;16.30;99.90;;;;;;5074610;28;20278;-91
2023/06/10 01:22:36;;;;;;;6.32;1.80;;;16.40;99.90;;;;;;5074670;28;20620;-90
2023/06/10 01:25:08;;;;;;;3.58;1.50;;;16.50;99.90;;;;;;5073567;28;20610;-90
2023/06/10 01:27:41;;;;;;;6.32;1.25;;;16.60;99.90;;;;;;5073347;28;20226;-90
2023/06/10 01:30:18;;;;;;;6.75;1.55;;;16.70;99.90;;;;;;5072634;28;20571;-90
2023/06/10 01:32:52;;;;;;;6.38;1.45;;;16.80;99.90;;;;;;5073729;28;20572;-90
2023/06/10 01:35:29;;;;;;;3.30;1.17;;;16.90;99.90;;;;;;5072758;28;20195;-91
2023/06/10 01:38:06;;;;;;;2.75;1.20;;;16.90;99.90;;;;;;5053082;28;20228;-90
2023/06/10 01:40:40;;;;;;;4.95;1.70;;;17.00;99.90;;;;;;5052895;28;20573;-91
2023/06/10 01:43:12;;;;;;;3.33;1.08;;;17.00;99.90;;;;;;5053107;28;20204;-91
2023/06/10 01:45:43;;;;;;;5.88;1.90;;;17.20;99.90;;;;;;5053010;28;20193;-89
2023/06/10 01:48:16;;;;;;;6.70;1.98;;;17.20;99.90;;;;;;5052750;28;20204;-90
2023/06/10 01:50:48;;;;;;;4.60;1.20;;;17.20;99.90;;;;;;5073182;28;20211;-88
2023/06/10 01:53:22;;;;;;;4.88;1.33;;;17.20;99.90;;;;;;5082580;28;20192;-92
2023/06/10 01:55:55;;;;;;;2.45;1.02;;;17.30;99.90;;;;;;5076131;28;20200;-91
2023/06/10 01:58:27;;;;;;;3.85;1.20;;;17.20;99.90;;;;;;5073691;28;20568;-90
2023/06/10 02:01:00;;;;;;;2.13;1.13;;;17.10;99.90;;;;;;5073711;28;20260;-91
2023/06/10 02:03:32;;;;;;;5.15;1.83;;;17.30;99.90;;;;;;5073033;28;20200;-91
2023/06/10 02:06:03;;;;;;;2.55;1.30;;;17.30;99.00;;;;;;5072908;28;20196;-90
2023/06/10 02:08:38;;;;;;;3.08;1.20;;;17.30;99.70;;;;;;5072424;28;20207;-91
2023/06/10 02:11:09;;;;;;;3.08;1.20;;;17.40;98.10;;;;;;5072659;28;20219;-90
2023/06/10 02:13:42;;;;;;;3.63;1.30;;;17.40;97.70;;;;;;5072961;28;20211;-90
2023/06/10 02:16:16;;;;;;;3.95;1.10;;;17.40;96.90;;;;;;5072496;28;20200;-90
2023/06/10 02:18:48;;;;;;;3.13;1.05;;;17.50;96.10;;;;;;5072352;28;20297;-90
2023/06/10 02:21:20;;;;;;;5.70;1.58;;;17.50;96.10;;;;;;5072820;28;20231;-91
2023/06/10 02:23:55;;;;;;;2.35;0.98;;;17.60;96.50;;;;;;5072666;28;20206;-91
2023/06/10 02:26:28;;;;;;;2.13;0.90;;;17.70;96.30;;;;;;5072193;28;20200;-90
2023/06/10 02:28:59;;;;;;;2.63;1.10;;;17.60;94.60;;;;;;5072393;28;20187;-91
2023/06/10 02:31:30;;;;;;;3.63;1.40;;;17.60;93.90;;;;;;5072250;28;20191;-91
2023/06/10 02:34:05;;;;;;;1.38;0.80;;;17.60;93.10;;;;;;5072532;28;20236;-90
2023/06/10 02:36:37;;;;;;;1.60;0.77;;;17.60;92.80;;;;;;5072946;28;20206;-90
2023/06/10 02:39:12;;;;;;;2.83;0.90;;;17.60;91.90;;;;;;5080157;28;20230;-88
2023/06/10 02:41:44;;;;;;;2.83;1.20;;;17.70;92.90;;;;;;5085625;28;20191;-88
2023/06/10 02:44:17;;;;;;;4.97;1.20;;;17.90;92.60;;;;;;5087447;28;20212;-88
2023/06/10 02:46:50;;;;;;;2.05;1.08;;;17.90;90.60;;;;;;5075394;28;20192;-90
2023/06/10 02:49:21;;;;;;;1.75;0.70;;;17.70;82.90;;;;;;5072416;28;20207;-91
2023/06/10 02:51:54;;;;;;;1.67;0.65;;;17.80;82.90;;;;;;5072514;28;20200;-89
2023/06/10 02:54:28;;;;;;;2.08;0.90;;;17.80;80.90;;;;;;5072472;28;20269;-89
2023/06/10 02:57:01;;;;;;;3.47;1.20;;;17.90;85.10;;;;;;5072056;28;20196;-90
2023/06/10 02:59:32;;;;;;;6.30;1.45;;;17.90;85.70;;;;;;5071952;28;20214;-89
2023/06/10 03:02:03;;;;;;;2.75;0.95;;;18.00;85.40;;;;;;5075494;28;20203;-89
2023/06/10 03:04:37;;;;;;;3.22;0.90;;;18.10;82.50;;;;;;5070712;28;20284;-89
2023/06/10 03:07:10;;;;;;;2.05;0.77;;;18.20;81.00;;;;;;5072143;28;20561;-89
2023/06/10 03:09:47;;;;;;;1.33;0.80;;;18.10;79.90;;;;;;5071776;28;20211;-90
2023/06/10 03:12:20;;;;;;;3.05;1.50;;;18.20;81.50;;;;;;5072318;28;20196;-90
2023/06/10 03:14:51;;;;;;;2.75;1.20;;;18.10;80.40;;;;;;5072185;28;20200;-89
2023/06/10 03:17:22;;;;;;;4.13;0.85;;;18.20;80.30;;;;;;5074579;28;20196;-90
2023/06/10 03:19:53;;;;;;;1.33;0.63;;;18.30;80.90;;;;;;5055699;28;20244;-90
2023/06/10 03:22:25;;;;;;;5.15;0.90;;;18.30;82.70;;;;;;5066379;28;20203;-90
2023/06/10 03:25:01;;;;;;;1.92;0.85;;;18.30;80.20;;;;;;5075955;28;20203;-89
2023/06/10 03:27:35;;;;;;;3.20;0.73;;;18.30;81.10;;;;;;5075622;28;20600;-90
2023/06/10 03:30:08;;;;;;;2.40;1.10;;;18.20;77.40;;;;;;5075652;28;20203;-90
2023/06/10 03:32:40;;;;;;;1.52;0.68;;;18.20;78.90;;;;;;5075842;28;20256;-90
2023/06/10 03:35:14;;;;;;;1.67;0.70;;;18.30;81.60;;;;;;5076558;28;20338;-90
2023/06/10 03:37:45;;;;;;;2.40;0.77;;;18.40;81.60;;;;;;5076054;28;20352;-88
2023/06/10 03:40:19;;;;;;;2.05;0.57;;;18.50;80.90;;;;;;5075841;28;20302;-91
2023/06/10 03:42:50;;;;;;;2.13;0.93;;;18.50;82.50;;;;;;5077375;28;20200;-90
2023/06/10 03:45:21;;;;;;;1.25;0.80;;;18.50;82.50;;;;;;5076304;28;20200;-90
2023/06/10 03:47:54;;;;;;;3.08;0.80;;;18.60;81.10;;;;;;5078561;28;20196;-90
2023/06/10 03:50:27;;;;;;;4.28;1.00;;;18.60;79.10;;;;;;5074477;28;20570;-91
2023/06/10 03:52:58;;;;;;;2.20;0.90;;;18.50;77.90;;;;;;5075373;28;20200;-89
2023/06/10 03:55:34;;;;;;;2.20;0.60;;;18.50;80.40;;;;;;5080735;28;20203;-87
2023/06/10 03:58:07;;;;;;;3.28;0.60;;;18.50;81.60;;;;;;5076247;28;20195;-91
2023/06/10 04:00:41;;;;;;;2.83;1.10;;;18.40;82.00;;;;;;5075185;28;20196;-89
2023/06/10 04:03:14;;;;;;;5.45;1.25;;;18.50;81.40;;;;;;5076390;28;20731;-89
2023/06/10 04:05:45;;;;;;;4.07;1.17;;;18.40;81.50;;;;;;5074052;28;20196;-89
2023/06/10 04:08:17;;;;;;;3.95;1.00;;;18.50;81.50;;;;;;5077577;28;20636;-89
2023/06/10 04:10:51;;;;;;;1.75;0.77;;;18.50;81.60;;;;;;5061807;28;20252;-90
2023/06/10 04:13:24;;;;;;;2.53;0.90;;;18.50;82.50;;;;;;5055923;28;20210;-90
2023/06/10 04:15:55;;;;;;;1.77;0.65;;;18.50;83.20;;;;;;5061495;28;20192;-89
2023/06/10 04:18:28;;;;;;;1.27;0.60;;;18.50;82.20;;;;;;5074766;28;20261;-90
2023/06/10 04:21:01;;;;;;;2.95;0.90;;;18.50;81.80;;;;;;5090240;28;20192;-90
2023/06/10 04:23:32;;;;;;;4.13;0.90;;;18.60;81.70;;;;;;5075249;28;20200;-89
2023/06/10 04:26:08;;;;;;;2.20;0.85;;;18.60;81.00;;;;;;5075124;28;20232;-89
2023/06/10 04:28:40;;;;;;;2.97;1.00;;;18.50;81.90;;;;;;5077614;28;20257;-90
2023/06/10 04:31:12;;;;;;;1.45;0.80;;;18.60;80.70;;;;;;5080007;28;20251;-88
2023/06/10 04:33:44;;;;;;;1.92;0.80;;;18.60;81.10;;;;;;5083692;28;20243;-90
2023/06/10 04:36:15;;;;;;;2.22;0.80;;;18.50;81.50;;;;;;5082248;28;20655;-89
2023/06/10 04:38:46;;;;;;;3.13;1.10;;;18.50;79.30;;;;;;5080886;28;20241;-89
2023/06/10 04:41:22;;;;;;;3.95;1.08;;;18.50;79.30;;;;;;5077781;28;20204;-90
2023/06/10 04:43:54;;;;;;;2.45;0.70;;;18.50;79.30;;;;;;5075607;28;20210;-89
2023/06/10 04:46:26;;;;;;;3.85;1.13;;;18.40;80.00;;;;;;5076117;28;20297;-90
2023/06/10 04:48:58;;;;;;;2.58;1.05;;;18.40;79.30;;;;;;5076111;28;20211;-90
2023/06/10 04:51:31;;;;;;;2.03;0.80;;;18.40;81.50;;;;;;5075505;28;20207;-90
2023/06/10 04:54:03;;;;;;;3.00;0.90;;;18.50;81.30;;;;;;5076058;28;20282;-89
2023/06/10 04:56:39;;;;;;;1.90;0.85;;;18.50;82.00;;;;;;5056910;28;20192;-90
2023/06/10 04:59:11;;;;;;;3.10;1.00;;;18.50;81.60;;;;;;5056173;28;20272;-90
2023/06/10 05:01:42;;;;;;;3.03;1.23;;;18.50;80.90;;;;;;5074904;28;20576;-90
2023/06/10 05:04:13;;;;;;;3.17;0.90;;;18.50;80.90;;;;;;5075855;28;20208;-90
2023/06/10 05:06:45;;;;;;;3.95;1.00;;;18.50;80.30;;;;;;5074990;28;20191;-89
2023/06/10 05:09:18;;;;;;;3.25;1.15;;;18.60;78.80;;;;;;5074521;28;20214;-90
2023/06/10 05:11:51;;;;;;;2.30;1.13;;;18.50;78.00;;;;;;5075275;28;20203;-90
2023/06/10 05:14:24;;;;;;;1.95;1.13;;;18.50;77.40;;;;;;5076265;28;20214;-90
2023/06/10 05:16:56;;;;;;;3.28;1.20;;;18.60;78.80;;;;;;5076989;28;20208;-89
2023/06/10 05:19:29;;;;;;;2.33;1.00;;;18.60;77.10;;;;;;5076073;28;20226;-90
2023/06/10 05:22:01;;;;;;;3.13;1.10;;;18.60;78.20;;;;;;5074686;28;20245;-89
2023/06/10 05:24:33;;;;;;;3.00;1.13;;;18.60;76.70;;;;;;5073719;28;20204;-89
2023/06/10 05:27:08;;;;;;;2.47;0.80;;;18.60;77.60;;;;;;5073640;28;20215;-89
2023/06/10 05:29:41;;;;;;;1.98;0.95;;;18.60;77.90;;;;;;5073593;28;20646;-89
2023/06/10 05:32:14;;;;;;;2.50;1.23;;;18.50;78.10;;;;;;5073663;28;20654;-90
2023/06/10 05:34:46;;;;;;;2.13;0.82;;;18.50;78.80;;;;;;5072989;28;20259;-89
2023/06/10 05:37:19;;;;;;;3.25;1.02;;;18.50;80.50;;;;;;5073299;28;20204;-89
2023/06/10 05:39:52;;;;;;;3.08;1.05;;;18.50;84.10;;;;;;5071973;28;20251;-89
2023/06/10 05:42:26;;;;;;;5.45;1.00;;;18.50;87.50;;;;;;5073770;28;20252;-89
2023/06/10 05:44:57;;;;;;;2.08;0.85;;;18.50;91.40;;;;;;5073545;28;20524;-89
2023/06/10 05:47:30;;;;;;;3.15;0.93;;;18.40;92.00;;;;;;5073136;28;20192;-89
2023/06/10 05:50:01;;;;;;;2.53;0.95;;;18.40;93.10;;;;;;5072180;28;20204;-89
2023/06/10 05:52:33;;;;;;;3.88;0.88;;;18.40;94.10;;;;;;5073148;28;20283;-90
2023/06/10 05:55:04;;;;;;;1.60;0.68;;;18.40;95.30;;;;;;5073404;28;20206;-89
2023/06/10 05:57:40;;;;;;;1.80;0.73;;;18.30;95.70;;;;;;5076156;28;20196;-90
2023/06/10 06:00:12;;;;;;;3.00;0.90;;;18.30;95.90;;;;;;5080434;28;20223;-89
2023/06/10 06:02:44;;;;;;;4.50;1.33;;;18.30;96.40;;;;;;5077770;28;20208;-89
2023/06/10 06:05:17;;;;;;;3.53;1.02;;;18.30;97.10;;;;;;5073816;28;20195;-89
2023/06/10 06:07:48;;;;;;;3.05;0.82;;;18.30;97.70;;;;;;5073258;28;20598;-89
2023/06/10 06:10:22;;;;;;;3.10;1.00;;;18.30;98.40;;;;;;5074163;28;20196;-89
2023/06/10 06:12:55;;;;;;;3.90;1.00;;;18.20;99.10;;;;;;5074080;28;20203;-90
2023/06/10 06:15:27;;;;;;;4.65;0.90;;;18.20;99.90;;;;;;5074269;28;20195;-91
2023/06/10 06:17:58;;;;;;;2.60;0.95;;;18.20;99.70;;;;;;5094291;28;20200;-88
2023/06/10 06:20:29;;;;;;;2.25;0.80;;;18.20;99.90;;;;;;5085739;28;20227;-90
2023/06/10 06:23:03;;;;;;;2.22;0.80;;;18.30;99.90;;;;;;5077367;28;20200;-90
2023/06/10 06:25:35;;;;;;;2.95;1.10;;;18.30;99.90;;;;;;5075941;28;20882;-90
2023/06/10 06:28:12;;;;;;;2.28;0.60;;;18.20;99.90;;;;;;5076501;28;20268;-89
2023/06/10 06:30:44;;;;;;;3.08;0.82;;;18.10;99.90;;;;;;5076399;28;20191;-89
2023/06/10 06:33:17;;;;;;;3.17;0.90;;;18.00;99.90;;;;;;5075508;28;20258;-89
2023/06/10 06:35:50;;;;;;;1.73;0.75;;;17.90;99.90;;;;;;5076699;28;20195;-90
2023/06/10 06:38:22;;;;;;;2.00;0.70;;;17.80;99.90;;;;;;5074967;28;20200;-90
2023/06/10 06:40:54;;;;;;;3.10;0.90;;;17.70;99.90;;;;;;5074461;28;20230;-89
2023/06/10 06:43:30;;;;;;;3.40;0.95;;;17.60;99.90;;;;;;5072854;28;20204;-90
2023/06/10 06:46:01;;;;;;;3.13;0.90;;;17.50;99.90;;;;;;5078392;28;20203;-90
2023/06/10 06:48:32;;;;;;;3.13;1.00;;;17.40;99.90;;;;;;5073113;28;20701;-90
2023/06/10 06:51:05;;;;;;;2.25;1.17;;;17.40;99.90;;;;;;5074754;28;20199;-89
2023/06/10 06:53:42;;;;;;;2.45;1.30;;;17.40;99.90;;;;;;5075727;28;20194;-90
2023/06/10 06:56:15;;;;;;;1.58;1.10;;;17.20;99.90;;;;;;5076861;28;20215;-89
2023/06/10 06:58:51;;;;;;;2.22;1.20;;;17.20;99.90;;;;;;5076796;28;20204;-90
2023/06/10 07:01:25;;;;;;;2.97;1.25;;;17.10;99.90;;;;;;5076563;28;20230;-90
2023/06/10 07:03:56;;;;;;;3.13;1.70;;;17.00;99.90;;;;;;5076600;28;20199;-90
2023/06/10 07:06:27;;;;;;;5.05;1.92;;;17.00;99.90;;;;;;5076180;28;20214;-90
2023/06/10 07:08:59;;;;;;;5.43;2.33;;;16.90;99.90;;;;;;5076928;28;20204;-91
2023/06/10 07:11:31;;;;;;;4.43;2.30;;;16.90;99.90;;;;;;5076746;28;20200;-90
2023/06/10 07:14:06;;;;;;;6.28;3.50;;;16.80;99.90;;;;;;5076245;28;20204;-90
2023/06/10 07:16:37;;;;;;;7.38;3.97;;;16.80;99.90;;;;;;5076776;28;20205;-90
2023/06/10 07:19:10;;;;;;;5.35;2.40;;;16.70;99.90;;;;;;5059367;28;20243;-91
2023/06/10 07:21:42;;;;;;;5.07;2.10;;;16.60;99.90;;;;;;5086976;28;20791;-90
2023/06/10 07:24:15;;;;;;;3.03;1.40;;;16.60;99.90;;;;;;5078501;28;20197;-90
2023/06/10 07:26:46;;;;;;;4.47;1.40;;;16.50;99.90;;;;;;5079468;28;20222;-91
2023/06/10 07:29:21;;;;;;;4.78;1.25;;;16.50;99.90;;;;;;5079170;28;20192;-90
2023/06/10 07:31:54;;;;;;;3.28;1.10;;;16.40;99.90;;;;;;5079410;28;20172;-89
2023/06/10 07:34:25;;;;;;;2.78;1.23;;;16.40;99.90;;;;;;5086452;28;20712;-89
2023/06/10 07:36:56;;;;;;;4.25;1.60;;;16.40;99.90;;;;;;5078672;28;20200;-90
2023/06/10 07:39:28;;;;;;;6.88;1.20;;;16.40;99.90;;;;;;5076489;28;20220;-89
2023/06/10 07:42:00;;;;;;;3.75;1.27;;;16.30;99.90;;;;;;5075228;28;20200;-89
2023/06/10 07:44:35;;;;;;;3.60;1.10;;;16.30;99.90;;;;;;5070078;28;20203;-90
2023/06/10 07:47:07;;;;;;;3.00;1.45;;;16.30;99.90;;;;;;5060483;28;20229;-89
2023/06/10 07:49:39;;;;;;;2.65;1.33;;;16.20;99.90;;;;;;5061150;28;20204;-89
2023/06/10 07:52:14;;;;;;;4.90;1.65;;;16.20;99.90;;;;;;5080178;28;20203;-90
2023/06/10 07:54:46;;;;;;;3.47;1.40;;;16.20;99.90;;;;;;5080314;28;20199;-90
2023/06/10 07:57:17;;;;;;;4.35;1.50;;;16.20;99.90;;;;;;5078187;28;20204;-90
2023/06/10 07:59:52;;;;;;;2.67;1.40;;;16.20;99.90;;;;;;5078573;28;20219;-90
2023/06/10 08:02:23;;;;;;;3.42;1.60;;;16.20;99.90;;;;;;5079576;28;20726;-90
2023/06/10 08:04:54;;;;;;;5.68;1.70;;;16.20;99.90;;;;;;5079291;28;20199;-89
2023/06/10 08:07:25;;;;;;;3.63;1.75;;;16.10;99.90;;;;;;5076364;28;20685;-90
2023/06/10 08:09:57;;;;;;;5.72;1.80;;;16.10;99.90;;;;;;5076036;28;20216;-90
2023/06/10 08:12:28;;;;;;;7.97;2.33;;;16.10;99.90;;;;;;5071628;28;20199;-89
2023/06/10 08:15:01;;;;;;;5.75;2.17;;;16.10;99.90;;;;;;5085350;28;20665;-90
2023/06/10 08:17:34;;;;;;;4.78;2.10;;;16.10;99.90;;;;;;5080211;28;20203;-91
2023/06/10 08:20:05;;;;;;;7.15;2.08;;;16.10;99.90;;;;;;5059960;28;20219;-90
2023/06/10 08:22:37;;;;;;;4.90;1.48;;;16.00;99.90;;;;;;5055944;28;20197;-90
2023/06/10 08:25:10;;;;;;;4.07;1.95;;;16.00;99.90;;;;;;5071297;28;20207;-89
2023/06/10 08:27:43;;;;;;;6.22;1.88;;;16.00;99.90;;;;;;5075615;28;20299;-89
2023/06/10 08:30:18;;;;;;;5.75;2.10;;;16.00;99.90;;;;;;5062401;28;20196;-90
2023/06/10 08:32:51;;;;;;;7.60;2.50;;;16.00;99.90;;;;;;5055341;28;20204;-89
2023/06/10 08:35:24;;;;;;;5.30;2.42;;;15.90;99.90;;;;;;5074041;28;20671;-90
2023/06/10 08:37:56;;;;;;;4.85;2.08;;;15.90;99.90;;;;;;5055651;28;20391;-90
2023/06/10 08:40:28;;;;;;;5.72;2.42;;;15.90;99.90;;;;;;5057894;28;20230;-90
2023/06/10 08:43:09;;;;;;;6.50;2.70;;;15.90;99.90;;;;;;5077036;28;20655;-90
2023/06/10 08:45:45;;;;;;;7.93;3.38;;;15.90;99.90;;;;;;5075213;28;20551;-92
2023/06/10 08:48:20;;;;;;;6.22;2.97;;;15.90;99.90;;;;;;5091524;28;20255;-90
2023/06/10 08:50:53;;;;;;;5.80;2.95;;;15.90;99.90;;;;;;5085991;28;20207;-90
2023/06/10 08:53:27;;;;;;;6.03;2.78;;;15.80;99.90;;;;;;5081712;28;20422;-90
2023/06/10 08:56:01;;;;;;;6.50;2.92;;;15.80;99.90;;;;;;5078600;28;20227;-90
2023/06/10 08:58:41;;;;;;;5.30;3.08;;;15.80;99.90;;;;;;5075883;28;20203;-90
2023/06/10 09:01:18;;;;;;;5.18;2.72;;;15.80;99.90;;;;;;5075287;28;20240;-90
2023/06/10 09:03:51;;;;;;;5.20;2.70;;;15.80;99.90;;;;;;5074899;28;20198;-90
2023/06/10 09:06:22;;;;;;;7.53;2.90;;;15.80;99.90;;;;;;5075411;28;20203;-90
2023/06/10 09:08:54;;;;;;;4.88;2.67;;;15.80;99.90;;;;;;5075602;28;20548;-90
2023/06/10 09:11:26;;;;;;;8.55;3.30;;;15.80;99.90;;;;;;5054982;28;20204;-90
2023/06/10 09:13:58;;;;;;;7.75;3.80;;;15.80;99.90;;;;;;5053969;28;20203;-90
2023/06/10 09:16:37;;;;;;;7.88;3.85;;;15.70;99.90;;;;;;5072208;28;20211;-90
2023/06/10 09:19:09;;;;;;;8.35;3.70;;;15.70;99.90;;;;;;5074632;28;20199;-89
2023/06/10 09:21:41;;;;;;;6.30;3.15;;;15.70;99.90;;;;;;5074616;28;20277;-90
2023/06/10 09:24:12;;;;;;;8.35;4.50;;;15.70;99.90;;;;;;5074787;28;20200;-90
2023/06/10 09:26:44;;;;;;;9.75;4.20;;;15.70;99.90;;;;;;5074292;28;20574;-91
2023/06/10 09:29:17;;;;;;;8.05;3.85;;;15.70;99.90;;;;;;5073806;28;20202;-90
2023/06/10 09:31:51;;;;;;;7.03;3.30;;;15.60;99.90;;;;;;5073852;28;20202;-90
2023/06/10 09:34:24;;;;;;;6.43;3.03;;;15.60;99.90;;;;;;5073438;28;20231;-90
2023/06/10 09:36:57;;;;;;;6.90;3.75;;;15.50;99.90;;;;;;5074199;28;20204;-90
2023/06/10 09:39:29;;;;;;;8.57;4.38;;;15.60;99.90;;;;;;5073846;28;20567;-90
2023/06/10 09:42:01;;;;;;;9.60;5.13;;;15.50;99.90;;;;;;5074123;28;20234;-90
2023/06/10 09:44:33;;;;;;;11.93;5.85;;;15.50;99.90;;;;;;5073761;28;20200;-90
2023/06/10 09:47:09;;;;;;;8.98;5.03;;;15.50;99.90;;;;;;5073773;28;20200;-89
2023/06/10 09:49:44;;;;;;;10.35;4.72;;;15.50;99.90;;;;;;5073824;28;20207;-89
2023/06/10 09:52:15;;;;;;;8.25;4.35;;;15.50;99.90;;;;;;5073825;28;20191;-89
2023/06/10 09:54:49;;;;;;;8.43;3.85;;;15.50;99.90;;;;;;5074192;28;20457;-89
2023/06/10 09:57:22;;;;;;;8.10;4.22;;;15.50;99.90;;;;;;5073747;28;20195;-90
2023/06/10 09:59:57;;;;;;;7.60;3.88;;;15.40;99.90;;;;;;5074600;28;20547;-90
2023/06/10 10:02:31;;;;;;;7.07;3.67;;;15.40;99.90;;;;;;5071834;28;20218;-90
2023/06/10 10:05:07;;;;;;;7.93;3.50;;;15.40;99.90;;;;;;5076733;28;20195;-90
2023/06/10 10:07:39;;;;;;;5.47;2.97;;;15.40;99.90;;;;;;5077715;28;20210;-88
2023/06/10 10:10:15;;;;;;;7.82;3.80;;;15.30;99.90;;;;;;5086089;28;20259;-89
2023/06/10 10:12:49;;;;;;;14.68;5.65;;;15.30;99.90;;;;;;5086841;28;20753;-89
2023/06/10 10:15:22;;;;;;;10.60;7.45;;;15.30;99.90;;;;;;5080333;28;20269;-90
2023/06/10 10:18:08;;;;;;;15.00;7.45;;;15.20;99.90;;;;;;5081797;28;20196;-89
2023/06/10 10:20:46;;;;;;;16.38;7.60;;;15.30;99.90;;;;;;5077926;28;20220;-90
2023/06/10 10:23:21;;;;;;;11.65;6.80;;;15.20;99.90;;;;;;5078629;28;20214;-91
2023/06/10 10:25:58;;;;;;;18.33;11.55;;;15.10;99.90;;;;;;5077424;28;20196;-89
2023/06/10 10:28:41;;;;;;;17.33;12.38;;;15.10;99.90;;;;;;5077725;28;20223;-89
2023/06/10 10:31:19;;;;;;;22.88;15.20;;;15.10;99.90;;;;;;5079997;28;20200;-90
2023/06/10 10:33:57;;;;;;;23.08;14.18;;;15.00;99.90;;;;;;5079148;28;20644;-90
2023/06/10 10:36:35;;;;;;;17.63;10.73;;;15.00;99.90;;;;;;5078438;28;20200;-89
2023/06/10 10:39:08;;;;;;;13.20;9.00;;;14.90;99.90;;;;;;5079179;28;20211;-90
2023/06/10 10:41:43;;;;;;;17.17;10.80;;;14.90;99.90;;;;;;5061287;28;20228;-90
2023/06/10 10:44:14;;;;;;;16.88;11.13;;;14.80;99.90;;;;;;5079215;28;20200;-90
2023/06/10 10:46:53;;;;;;;17.80;10.77;;;14.70;99.90;;;;;;5081560;28;20188;-90
2023/06/10 10:49:31;;;;;;;13.48;10.13;;;14.80;99.90;;;;;;5083491;28;20206;-90
2023/06/10 10:52:05;;;;;;;17.02;10.10;;;14.80;99.90;;;;;;5079465;28;20190;-90
2023/06/10 10:54:38;;;;;;;16.38;9.82;;;14.80;99.90;;;;;;5078482;28;20245;-90
2023/06/10 10:57:20;;;;;;;13.73;8.73;;;14.80;99.90;;;;;;5079280;28;20204;-90
2023/06/10 11:00:00;;;;;;;15.73;9.27;;;14.80;99.90;;;;;;5076030;28;20193;-90
2023/06/10 11:02:42;;;;;;;17.70;9.30;;;14.80;99.90;;;;;;5058693;28;20234;-90
2023/06/10 11:05:20;;;;;;;16.92;9.55;;;14.80;99.90;;;;;;5058651;28;20268;-90
2023/06/10 11:07:59;;;;;;;15.63;8.65;;;14.80;99.90;;;;;;5079105;28;20191;-90
2023/06/10 11:10:37;;;;;;;16.63;9.27;;;14.70;99.90;;;;;;5078243;28;20184;-91
2023/06/10 11:13:14;;;;;;;16.25;9.10;;;14.70;99.90;;;;;;5079822;28;20208;-90
2023/06/10 11:15:50;;;;;;;18.35;9.50;;;14.60;99.90;;;;;;5065790;28;20559;-90
2023/06/10 11:18:26;;;;;;;14.07;8.98;;;14.60;99.90;;;;;;5067475;28;20199;-90
2023/06/10 11:21:15;;;;;;;12.48;7.75;;;14.60;99.90;;;;;;5058260;28;20243;-91
2023/06/10 11:23:49;;;;;;;12.82;8.07;;;14.50;99.90;;;;;;5057613;28;20193;-91
2023/06/10 11:26:35;;;;;;;15.25;8.85;;;14.50;99.90;;;;;;5056839;28;20196;-90
2023/06/10 11:29:12;;;;;;;13.27;8.77;;;14.50;99.90;;;;;;5056338;28;20824;-89
2023/06/10 11:31:50;;;;;;;16.75;9.15;;;14.40;99.90;;;;;;5069682;28;20207;-91
2023/06/10 11:34:27;;;;;;;12.90;8.95;;;14.40;99.90;;;;;;5077944;28;20618;-90
2023/06/10 11:37:03;;;;;;;13.73;9.20;;;14.40;99.90;;;;;;5077302;28;20658;-91
2023/06/10 11:39:36;;;;;;;15.88;8.70;;;14.40;99.90;;;;;;5077962;28;20215;-91
2023/06/10 11:42:08;;;;;;;13.05;8.43;;;14.40;99.90;;;;;;5077533;28;20272;-91
2023/06/10 11:44:39;;;;;;;14.20;8.05;;;14.40;99.90;;;;;;5076027;28;20547;-91
2023/06/10 11:47:13;;;;;;;14.70;8.90;;;14.50;99.90;;;;;;5076039;28;20192;-90
2023/06/10 11:49:46;;;;;;;15.25;8.75;;;14.40;99.90;;;;;;5079519;28;20204;-91
2023/06/10 11:52:32;;;;;;;16.30;8.82;;;14.30;99.90;;;;;;5058573;28;20201;-90
2023/06/10 11:55:04;;;;;;;16.15;9.38;;;14.30;99.90;;;;;;5060043;28;20264;-90
2023/06/10 11:57:40;;;;;;;14.50;9.63;;;14.20;99.90;;;;;;5059947;28;20201;-91
2023/06/10 12:00:13;;;;;;;16.02;9.80;;;14.20;99.90;;;;;;5077751;28;20284;-89
2023/06/10 12:02:46;;;;;;;15.05;9.27;;;14.20;99.90;;;;;;5072581;28;20223;-89
2023/06/10 12:05:19;;;;;;;13.10;9.20;;;14.20;99.90;;;;;;5079085;28;20202;-90
2023/06/10 12:08:13;;;;;;;17.35;9.07;;;14.20;99.90;;;;;;5081502;28;20233;-91
2023/06/10 12:10:46;;;;;;;12.57;8.80;;;14.20;99.90;;;;;;5084991;28;20196;-90
2023/06/10 12:13:17;;;;;;;13.02;8.13;;;14.20;99.90;;;;;;5080792;28;20200;-90
2023/06/10 12:15:52;;;;;;;14.02;8.50;;;14.10;99.90;;;;;;5084048;28;20212;-90
2023/06/10 12:18:27;;;;;;;13.52;8.63;;;14.10;99.90;;;;;;5086566;28;20180;-89
2023/06/10 12:21:00;;;;;;;13.88;8.30;;;14.00;99.90;;;;;;5094805;28;20190;-89
2023/06/10 12:23:36;;;;;;;13.02;8.43;;;14.00;99.90;;;;;;5093901;28;20226;-88
2023/06/10 12:26:09;;;;;;;14.82;8.68;;;14.00;99.90;;;;;;5089078;28;20212;-90
2023/06/10 12:28:41;;;;;;;12.98;8.23;;;14.00;99.90;;;;;;5081905;28;20200;-90
2023/06/10 12:31:14;;;;;;;11.60;8.50;;;14.00;99.90;;;;;;5082481;28;20211;-90
2023/06/10 12:33:49;;;;;;;11.60;7.72;;;14.00;99.90;;;;;;5081652;28;20235;-90
2023/06/10 12:36:24;;;;;;;10.27;6.85;;;13.90;99.90;;;;;;5083544;28;20203;-90
2023/06/10 12:39:08;;;;;;;12.73;6.93;;;13.90;99.90;;;;;;5083161;28;20206;-91
2023/06/10 12:41:43;;;;;;;9.43;6.82;;;13.90;99.90;;;;;;5081820;28;20220;-90
2023/06/10 12:44:17;;;;;;;10.40;6.38;;;13.80;99.90;;;;;;5093946;28;20195;-90
2023/06/10 12:46:49;;;;;;;9.15;5.90;;;13.80;99.90;;;;;;5081946;28;20203;-91
2023/06/10 12:49:26;;;;;;;8.07;5.22;;;13.80;99.90;;;;;;5078818;28;20199;-89
2023/06/10 12:51:57;;;;;;;10.63;5.93;;;13.80;99.90;;;;;;5080381;28;20263;-90
2023/06/10 12:54:30;;;;;;;9.18;5.45;;;13.80;99.90;;;;;;5082613;28;20206;-90
2023/06/10 12:57:03;;;;;;;7.75;5.10;;;13.70;99.90;;;;;;5080778;28;20222;-90
2023/06/10 12:59:36;;;;;;;9.23;4.90;;;13.70;99.90;;;;;;5079102;28;20188;-91
2023/06/10 13:02:09;;;;;;;7.05;4.80;;;13.70;99.90;;;;;;5081114;28;20219;-90
2023/06/10 13:04:42;;;;;;;8.50;4.88;;;13.70;99.90;;;;;;5087672;28;20210;-89
2023/06/10 13:07:14;;;;;;;6.53;4.05;;;13.70;99.90;;;;;;5084321;28;20204;-89
2023/06/10 13:09:50;;;;;;;8.45;4.22;;;13.70;99.90;;;;;;5081316;28;20206;-90
2023/06/10 13:12:22;;;;;;;9.40;4.88;;;13.70;99.90;;;;;;5081286;28;20199;-90
2023/06/10 13:14:56;;;;;;;9.02;5.07;;;13.50;99.90;;;;;;5079038;28;20444;-90
2023/06/10 13:17:28;;;;;;;9.30;5.70;;;13.50;99.90;;;;;;5081560;28;20658;-90